createdAt,value
2022-08-19T00:02:23.108Z,99428.81
2022-08-19T00:05:26.015Z,99426.34
2022-08-19T00:08:28.766Z,99419.53
2022-08-19T00:11:31.933Z,99417.91
2022-08-19T00:14:34.443Z,99416.81
2022-08-19T00:17:37.275Z,99415.72
2022-08-19T00:20:45.137Z,99415.72
2022-08-19T00:23:47.999Z,99419.97
2022-08-19T00:26:51.378Z,99422.69
2022-08-19T00:29:54.235Z,99428.38
2022-08-19T00:32:57.607Z,99423.19
2022-08-19T00:36:01.802Z,99422.59
2022-08-19T00:39:04.842Z,99423.38
2022-08-19T00:42:07.715Z,99424.72
2022-08-19T00:45:14.131Z,99429.06
2022-08-19T00:48:18.178Z,99433.09
2022-08-19T00:51:20.727Z,99426.53
2022-08-19T00:54:28.239Z,99429.44
2022-08-19T00:57:36.767Z,99429.41
2022-08-19T01:00:39.956Z,99419.56
2022-08-19T01:03:56.883Z,99417.38
2022-08-19T01:07:02.512Z,99414.59
2022-08-19T01:10:09.670Z,99410.47
2022-08-19T01:13:15.737Z,99403.09
2022-08-19T01:16:20.776Z,99403.34
2022-08-19T01:19:43.981Z,99410.41
2022-08-19T01:22:50.549Z,99411.75
2022-08-19T01:25:55.389Z,99412.56
2022-08-19T01:29:01.056Z,99410.88
2022-08-19T01:32:04.573Z,99404.59
2022-08-19T01:35:07.363Z,99401.03
2022-08-19T01:38:24.913Z,99402.38
2022-08-19T01:41:27.590Z,99403.19
2022-08-19T01:44:30.399Z,99394.62
2022-08-19T01:47:33.240Z,99399.81
2022-08-19T01:50:36.169Z,99397.00
2022-08-19T01:53:39.799Z,99396.41
2022-08-19T01:56:42.767Z,99387.50
2022-08-19T01:59:46.019Z,99384.50
2022-08-19T02:02:49.016Z,99393.47
2022-08-19T02:06:00.750Z,99383.69
2022-08-19T02:09:04.369Z,99372.81
2022-08-19T02:12:08.927Z,99374.44
2022-08-19T02:15:12.065Z,99372.84
2022-08-19T02:18:15.114Z,99366.88
2022-08-19T02:21:19.314Z,99369.09
2022-08-19T02:24:22.111Z,99360.34
2022-08-19T02:27:24.702Z,99367.72
2022-08-19T02:30:27.670Z,99359.53
2022-08-19T02:33:30.708Z,99342.72
2022-08-19T02:36:33.590Z,99340.03
2022-08-19T02:39:36.195Z,99338.69
2022-08-19T02:42:39.107Z,99341.16
2022-08-19T02:45:41.997Z,99353.66
2022-08-19T02:48:45.115Z,99361.53
2022-08-19T02:51:47.920Z,99363.38
2022-08-19T02:54:50.803Z,99363.09
2022-08-19T02:57:53.342Z,99381.63
2022-08-19T03:00:57.400Z,99383.22
2022-08-19T03:04:03.205Z,99381.81
2022-08-19T03:07:10.573Z,99391.50
2022-08-19T03:10:13.804Z,99396.63
2022-08-19T03:13:18.720Z,99397.16
2022-08-19T03:16:23.470Z,99407.94
2022-08-19T03:19:26.350Z,99406.00
2022-08-19T03:22:29.741Z,99408.41
2022-08-19T03:25:39.962Z,99419.47
2022-08-19T03:28:47.710Z,99415.56
2022-08-19T03:32:05.137Z,99415.53
2022-08-19T03:35:07.947Z,99414.25
2022-08-19T03:38:10.757Z,99421.50
2022-08-19T03:41:16.944Z,99423.91
2022-08-19T03:44:22.681Z,99416.25
2022-08-19T03:47:25.280Z,99422.16
2022-08-19T03:50:28.309Z,99424.41
2022-08-19T03:53:32.881Z,99423.56
2022-08-19T03:56:38.387Z,99427.09
2022-08-19T03:59:40.943Z,99427.03
2022-08-19T04:02:58.756Z,99415.59
2022-08-19T04:06:18.851Z,99415.44
2022-08-19T04:09:21.447Z,99416.00
2022-08-19T04:12:24.280Z,99420.44
2022-08-19T04:15:26.942Z,99432.94
2022-08-19T04:18:35.930Z,99440.88
2022-08-19T04:21:39.024Z,99439.03
2022-08-19T04:24:41.862Z,99439.38
2022-08-19T04:27:47.515Z,99447.00
2022-08-19T04:30:53.690Z,99455.59
2022-08-19T04:34:01.603Z,99449.03
2022-08-19T04:37:13.736Z,99445.25
2022-08-19T04:40:34.945Z,99445.06
2022-08-19T04:43:39.122Z,99455.62
2022-08-19T04:46:51.330Z,99455.72
2022-08-19T04:49:54.844Z,99454.13
2022-08-19T04:52:57.668Z,99452.37
2022-08-19T04:56:06.041Z,99458.19
2022-08-19T04:59:09.638Z,99454.94
2022-08-19T05:02:12.526Z,99461.25
2022-08-19T05:05:15.106Z,99464.00
2022-08-19T05:08:31.384Z,99464.53
2022-08-19T05:11:40.133Z,99454.06
2022-08-19T05:14:42.973Z,99452.97
2022-08-19T05:18:05.461Z,99453.28
2022-08-19T05:21:29.384Z,99466.91
2022-08-19T05:24:33.522Z,99465.56
2022-08-19T05:27:36.503Z,99453.09
2022-08-19T05:30:47.283Z,99455.91
2022-08-19T05:33:51.043Z,99465.22
2022-08-19T05:36:57.910Z,99464.69
2022-08-19T05:40:00.849Z,99461.75
2022-08-19T05:43:05.429Z,99457.94
2022-08-19T05:46:09.670Z,99449.50
2022-08-19T05:49:12.204Z,99455.00
2022-08-19T05:52:19.336Z,99460.22
2022-08-19T05:55:23.633Z,99458.06
2022-08-19T05:58:28.118Z,99458.91
2022-08-19T06:01:30.816Z,99462.25
2022-08-19T06:04:34.058Z,99461.75
2022-08-19T06:07:37.606Z,99459.84
2022-08-19T06:10:40.487Z,99467.22
2022-08-19T06:13:44.017Z,99463.16
2022-08-19T06:16:46.931Z,99464.53
2022-08-19T06:19:51.020Z,99470.56
2022-08-19T06:22:54.840Z,99459.69
2022-08-19T06:25:57.478Z,99456.41
2022-08-19T06:29:00.349Z,99452.84
2022-08-19T06:32:04.226Z,99456.69
2022-08-19T06:35:07.634Z,99472.75
2022-08-19T06:38:10.567Z,99466.44
2022-08-19T06:41:13.435Z,99458.84
2022-08-19T06:44:16.494Z,99448.69
2022-08-19T06:47:23.861Z,99452.72
2022-08-19T06:50:31.177Z,99447.25
2022-08-19T06:53:34.469Z,99450.19
2022-08-19T06:56:37.393Z,99455.59
2022-08-19T06:59:40.747Z,99460.41
2022-08-19T07:02:48.211Z,99458.75
2022-08-19T07:06:04.208Z,99459.50
2022-08-19T07:09:11.491Z,99456.69
2022-08-19T07:12:16.438Z,99451.47
2022-08-19T07:15:19.207Z,99450.22
2022-08-19T07:18:22.551Z,99447.34
2022-08-19T07:21:29.489Z,99445.63
2022-08-19T07:24:33.540Z,99457.00
2022-08-19T07:27:36.366Z,99465.63
2022-08-19T07:30:39.435Z,99481.84
2022-08-19T07:33:44.243Z,99484.16
2022-08-19T07:36:47.245Z,99486.81
2022-08-19T07:39:50.022Z,99481.38
2022-08-19T07:42:52.884Z,99478.94
2022-08-19T07:45:57.796Z,99480.16
2022-08-19T07:49:01.490Z,99478.94
2022-08-19T07:52:07.413Z,99475.44
2022-08-19T07:55:39.790Z,99472.91
2022-08-19T07:58:37.528Z,99475.19
2022-08-19T08:01:41.468Z,99476.38
2022-08-19T08:05:03.145Z,99461.06
2022-08-19T08:08:23.871Z,99454.81
2022-08-19T08:11:30.617Z,99457.78
2022-08-19T08:14:36.046Z,99452.44
2022-08-19T08:17:49.214Z,99455.25
2022-08-19T08:20:54.097Z,99467.47
2022-08-19T08:23:57.046Z,99467.87
2022-08-19T08:27:01.002Z,99479.31
2022-08-19T08:30:07.569Z,99469.81
2022-08-19T08:33:11.116Z,99482.25
2022-08-19T08:36:14.827Z,99478.38
2022-08-19T08:39:20.196Z,99478.00
2022-08-19T08:42:29.979Z,99479.50
2022-08-19T08:45:41.037Z,99473.38
2022-08-19T08:48:54.605Z,99476.88
2022-08-19T08:52:05.311Z,99490.06
2022-08-19T08:55:12.100Z,99480.03
2022-08-19T08:58:19.273Z,99486.03
2022-08-19T09:01:22.082Z,99485.44
2022-08-19T09:04:24.669Z,99472.59
2022-08-19T09:07:35.003Z,99456.12
2022-08-19T09:11:06.755Z,99440.50
2022-08-19T09:14:51.149Z,99432.25
2022-08-19T09:18:02.674Z,99429.56
2022-08-19T09:21:05.590Z,99445.44
2022-08-19T09:24:08.157Z,99451.31
2022-08-19T09:27:18.683Z,99445.13
2022-08-19T09:30:25.771Z,99430.59
2022-08-19T09:33:28.569Z,99433.00
2022-08-19T09:36:39.831Z,99431.53
2022-08-19T09:39:43.658Z,99429.75
2022-08-19T09:42:49.595Z,99430.44
2022-08-19T09:45:53.778Z,99425.19
2022-08-19T09:48:59.466Z,99425.34
2022-08-19T09:52:11.367Z,99433.31
2022-08-19T09:55:17.363Z,99418.50
2022-08-19T09:58:26.032Z,99418.19
2022-08-19T10:01:31.984Z,99397.66
2022-08-19T10:04:53.427Z,99386.56
2022-08-19T10:07:56.839Z,99379.75
2022-08-19T10:11:28.307Z,99375.09
2022-08-19T10:14:24.666Z,99371.72
2022-08-19T10:17:31.706Z,99372.56
2022-08-19T10:20:38.861Z,99377.63
2022-08-19T10:23:46.917Z,99381.25
2022-08-19T10:26:58.760Z,99363.84
2022-08-19T10:30:02.813Z,99376.47
2022-08-19T10:33:10.830Z,99373.44
2022-08-19T10:36:23.566Z,99378.41
2022-08-19T10:39:28.641Z,99372.81
2022-08-19T10:42:33.825Z,99367.75
2022-08-19T10:45:37.391Z,99370.06
2022-08-19T10:48:55.679Z,99375.69
2022-08-19T10:52:18.657Z,99361.56
2022-08-19T10:55:42.810Z,99363.09
2022-08-19T10:58:45.619Z,99362.44
2022-08-19T11:01:49.280Z,99370.97
2022-08-19T11:04:56.036Z,99366.16
2022-08-19T11:07:58.895Z,99358.31
2022-08-19T11:11:07.578Z,99361.00
2022-08-19T11:14:15.875Z,99363.75
2022-08-19T11:17:18.426Z,99365.00
2022-08-19T11:20:21.314Z,99360.47
2022-08-19T11:23:23.864Z,99361.78
2022-08-19T11:26:28.022Z,99367.47
2022-08-19T11:29:31.820Z,99358.94
2022-08-19T11:32:35.418Z,99357.81
2022-08-19T15:30:36.797Z,99386.06
2022-08-19T15:33:43.966Z,99392.84
2022-08-19T15:36:46.700Z,99388.38
2022-08-19T15:39:50.305Z,99386.56
2022-08-19T15:42:54.070Z,99392.25
2022-08-19T15:45:56.873Z,99388.31
2022-08-19T15:49:00.433Z,99382.19
2022-08-19T15:52:04.480Z,99376.63
2022-08-19T15:55:07.619Z,99359.06
2022-08-19T15:58:32.806Z,99339.41
2022-08-19T16:01:54.002Z,99309.72
2022-08-19T16:05:16.499Z,99293.53
2022-08-19T16:08:19.187Z,99305.75
2022-08-19T16:11:29.253Z,99309.84
2022-08-19T16:14:35.272Z,99302.63
2022-08-19T16:17:38.153Z,99298.75
2022-08-19T16:20:41.023Z,99300.28
2022-08-19T16:23:48.435Z,99294.78
2022-08-19T16:26:51.170Z,99284.75
2022-08-19T16:29:54.652Z,99291.53
2022-08-19T16:32:57.227Z,99285.66
2022-08-19T16:36:07.217Z,99295.91
2022-08-19T16:39:12.735Z,99300.06
2022-08-19T16:42:15.719Z,99318.69
2022-08-19T16:45:19.540Z,99330.59
2022-08-19T16:48:24.894Z,99340.94
2022-08-19T16:51:27.820Z,99351.16
2022-08-19T16:54:32.560Z,99367.09
2022-08-19T16:57:35.357Z,99380.28
2022-08-19T17:00:38.259Z,99401.81
2022-08-19T17:03:41.234Z,99420.81
2022-08-19T17:06:44.047Z,99424.53
2022-08-19T17:09:46.649Z,99438.25
2022-08-19T17:12:54.844Z,99450.94
2022-08-19T17:15:58.755Z,99454.41
2022-08-19T17:19:04.986Z,99454.47
2022-08-19T17:22:08.419Z,99435.13
2022-08-19T17:25:14.228Z,99420.91
2022-08-19T17:28:20.363Z,99400.25
2022-08-19T17:31:25.243Z,99381.56
2022-08-19T17:34:28.186Z,99357.53
2022-08-19T17:37:31.255Z,99347.91
2022-08-19T17:40:35.047Z,99337.69
2022-08-19T17:43:43.310Z,99327.41
2022-08-19T17:46:46.843Z,99326.03
2022-08-19T17:49:49.812Z,99315.97
2022-08-19T17:52:52.388Z,99291.44
2022-08-19T17:55:55.249Z,99281.59
2022-08-19T17:59:00.295Z,99281.00
2022-08-19T18:02:10.095Z,99274.06
2022-08-19T18:05:13.613Z,99287.38
2022-08-19T18:08:17.465Z,99297.28
2022-08-19T18:11:20.587Z,99298.91
2022-08-19T18:14:33.028Z,99299.84
2022-08-19T18:17:37.428Z,99294.75
2022-08-19T18:20:40.132Z,99289.28
2022-08-19T18:23:45.854Z,99304.66
2022-08-19T18:26:49.308Z,99327.75
2022-08-19T18:29:52.291Z,99372.12
2022-08-19T18:32:54.924Z,99413.69
2022-08-19T18:35:57.770Z,99453.63
2022-08-19T18:39:18.838Z,99480.97
2022-08-19T18:42:42.280Z,99530.81
2022-08-19T18:46:04.264Z,99578.44
2022-08-19T18:49:11.923Z,99559.94
2022-08-19T18:52:14.408Z,99549.81
2022-08-19T18:55:18.193Z,99555.44
2022-08-19T18:58:33.885Z,99552.47
2022-08-19T19:01:39.615Z,99539.66
2022-08-19T19:04:43.642Z,99545.44
2022-08-19T19:07:46.495Z,99558.50
2022-08-19T19:10:50.386Z,99551.81
2022-08-19T19:13:54.200Z,99528.03
2022-08-19T19:16:57.685Z,99517.16
2022-08-19T19:20:00.627Z,99518.72
2022-08-19T19:23:03.602Z,99514.88
2022-08-19T19:26:10.569Z,99498.03
2022-08-19T19:29:14.058Z,99482.22
2022-08-19T19:32:26.331Z,99474.28
2022-08-19T19:35:30.106Z,99479.84
2022-08-19T19:38:33.470Z,99466.16
2022-08-19T19:41:36.952Z,99449.78
2022-08-19T19:44:41.504Z,99444.59
2022-08-19T19:47:50.135Z,99436.97
2022-08-19T19:50:54.073Z,99420.66
2022-08-19T19:53:59.468Z,99433.72
2022-08-19T19:57:02.433Z,99440.81
2022-08-19T20:00:08.293Z,99450.13
2022-08-19T20:03:11.357Z,99452.84
2022-08-19T20:06:16.549Z,99456.69
2022-08-19T20:09:19.999Z,99440.34
2022-08-19T20:12:22.596Z,99418.47
2022-08-19T20:15:25.598Z,99432.13
2022-08-19T20:18:28.363Z,99471.34
2022-08-19T20:21:32.458Z,99654.72
2022-08-19T20:24:36.251Z,99683.97
2022-08-19T20:27:40.259Z,99695.41
2022-08-19T20:30:46.590Z,99683.66
2022-08-19T20:33:50.991Z,99688.22
2022-08-19T20:36:53.575Z,99718.87
2022-08-19T20:39:56.458Z,99731.75
2022-08-19T20:42:59.072Z,99753.12
2022-08-19T20:46:04.890Z,99723.06
2022-08-19T20:49:08.279Z,99721.75
2022-08-19T20:52:11.148Z,99737.13
2022-08-19T20:55:13.737Z,99704.91
2022-08-19T20:58:18.903Z,99707.12
2022-08-19T21:01:21.618Z,99704.09
2022-08-19T21:04:24.663Z,99721.34
2022-08-19T21:07:39.016Z,99729.50
2022-08-19T21:10:42.542Z,99722.50
2022-08-19T21:13:45.154Z,99703.09
2022-08-19T21:16:49.312Z,99697.94
2022-08-19T21:19:51.820Z,99673.66
2022-08-19T21:22:54.615Z,99626.87
2022-08-19T21:25:59.298Z,99596.13
2022-08-19T21:29:02.152Z,99586.75
2022-08-19T21:32:05.038Z,99580.13
2022-08-19T21:35:08.167Z,99572.25
2022-08-19T21:38:10.813Z,99580.97
2022-08-19T21:41:13.650Z,99584.47
2022-08-19T21:44:16.181Z,99589.69
2022-08-19T21:47:19.095Z,99586.97
2022-08-19T21:50:23.897Z,99582.50
2022-08-19T21:53:31.545Z,99569.03
2022-08-19T21:56:40.079Z,99556.75
2022-08-19T21:59:44.133Z,99553.28
2022-08-19T22:02:47.065Z,99554.09
2022-08-19T22:05:50.856Z,99536.03
2022-08-19T22:08:56.352Z,99534.78
2022-08-19T22:11:59.194Z,99509.91
2022-08-19T22:15:02.120Z,99496.53
2022-08-19T22:18:06.081Z,99505.16
2022-08-19T22:21:11.899Z,99507.78
2022-08-19T22:24:15.075Z,99503.84
2022-08-19T22:27:18.318Z,99488.91
2022-08-19T22:30:23.004Z,99470.34
2022-08-19T22:33:27.696Z,99447.19
2022-08-19T22:36:32.227Z,99425.22
2022-08-19T22:39:35.442Z,99410.72
2022-08-19T22:42:38.566Z,99392.44
2022-08-19T22:45:42.006Z,99397.41
2022-08-19T22:48:45.881Z,99379.59
2022-08-19T22:52:07.060Z,99376.56
2022-08-19T22:55:10.271Z,99376.97
2022-08-19T22:58:12.806Z,99359.06
2022-08-19T23:01:29.859Z,99355.19
2022-08-19T23:04:33.273Z,99345.63
2022-08-19T23:07:36.917Z,99346.19
2022-08-19T23:10:39.841Z,99347.31
2022-08-19T23:13:42.743Z,99348.13
2022-08-19T23:16:50.701Z,99350.28
2022-08-19T23:19:54.589Z,99354.03
2022-08-19T23:22:57.910Z,99347.53
2022-08-19T23:26:00.735Z,99359.94
2022-08-19T23:29:22.732Z,99369.44
2022-08-19T23:32:25.609Z,99376.59
2022-08-19T23:35:33.198Z,99373.97
2022-08-19T23:38:36.109Z,99380.62
2022-08-19T23:41:38.706Z,99380.03
2022-08-19T23:44:51.592Z,99375.06
2022-08-19T23:47:55.598Z,99381.69
2022-08-19T23:50:59.958Z,99380.22
2022-08-19T23:54:02.489Z,99389.81
2022-08-19T23:57:13.290Z,99389.25
